createdAt,value
2022-08-20T00:01:39.530Z,84.36
2022-08-20T00:04:06.241Z,84.13
2022-08-20T00:06:34.229Z,84.73
2022-08-20T00:09:00.806Z,84.36
2022-08-20T00:11:29.061Z,84.27
2022-08-20T00:13:59.539Z,84.41
2022-08-20T00:16:32.914Z,84.86
2022-08-20T00:19:01.241Z,84.88
2022-08-20T00:21:28.235Z,85.07
2022-08-20T00:23:58.467Z,85.41
2022-08-20T00:26:25.330Z,86.50
2022-08-20T00:28:52.742Z,87.10
2022-08-20T00:31:22.091Z,87.96
2022-08-20T00:33:48.892Z,88.51
2022-08-20T00:36:17.614Z,88.67
2022-08-20T00:38:46.241Z,89.27
2022-08-20T00:41:21.242Z,89.88
2022-08-20T00:44:21.912Z,89.78
2022-08-20T00:46:49.473Z,90.24
2022-08-20T00:49:18.366Z,89.65
2022-08-20T00:51:50.448Z,89.81
2022-08-20T00:54:23.016Z,89.87
2022-08-20T00:57:12.432Z,90.05
2022-08-20T00:59:41.757Z,89.98
2022-08-20T01:02:13.563Z,90.06
2022-08-20T01:04:43.780Z,89.56
2022-08-20T01:07:11.290Z,89.78
2022-08-20T01:09:58.231Z,90.20
2022-08-20T01:12:25.215Z,90.48
2022-08-20T01:14:52.103Z,89.91
2022-08-20T01:17:24.684Z,89.97
2022-08-20T01:19:56.922Z,90.80
2022-08-20T01:23:01.832Z,90.99
2022-08-20T01:25:46.992Z,90.04
2022-08-20T01:28:16.289Z,90.04
2022-08-20T01:30:42.921Z,90.09
2022-08-20T01:33:09.962Z,90.35
2022-08-20T01:35:41.525Z,90.77
2022-08-20T01:38:08.985Z,90.05
2022-08-20T01:40:52.029Z,90.07
2022-08-20T01:43:18.679Z,90.09
2022-08-20T01:45:48.716Z,89.94
2022-08-20T01:48:17.583Z,89.85
2022-08-20T01:50:53.366Z,90.02
2022-08-20T01:53:34.776Z,90.14
2022-08-20T01:56:05.229Z,90.24
2022-08-20T01:58:33.448Z,90.10
2022-08-20T02:01:00.109Z,90.09
2022-08-20T02:03:26.958Z,89.97
2022-08-20T02:05:53.642Z,89.92
2022-08-20T02:08:23.205Z,89.86
2022-08-20T02:10:50.166Z,90.22
2022-08-20T02:13:17.184Z,89.97
2022-08-20T02:15:43.946Z,89.78
2022-08-20T02:18:14.889Z,89.72
2022-08-20T02:20:43.257Z,89.83
2022-08-20T02:23:11.973Z,89.84
2022-08-20T02:25:40.355Z,89.50
2022-08-20T02:28:09.810Z,89.60
2022-08-20T02:30:40.364Z,90.26
2022-08-20T02:33:10.088Z,90.08
2022-08-20T02:35:37.844Z,90.20
2022-08-20T02:38:04.685Z,90.46
2022-08-20T02:40:32.443Z,90.12
2022-08-20T02:42:59.892Z,90.36
2022-08-20T02:45:26.895Z,90.81
2022-08-20T02:47:54.234Z,90.64
2022-08-20T02:50:23.937Z,90.41
2022-08-20T02:52:52.142Z,90.07
2022-08-20T02:55:26.997Z,89.78
2022-08-20T02:58:00.175Z,89.99
2022-08-20T03:00:29.079Z,89.57
2022-08-20T03:02:59.341Z,89.35
2022-08-20T03:05:26.403Z,89.38
2022-08-20T03:07:53.853Z,89.65
2022-08-20T03:10:27.980Z,89.85
2022-08-20T03:12:54.731Z,90.32
2022-08-20T03:15:21.581Z,89.85
2022-08-20T03:17:48.125Z,89.47
2022-08-20T03:20:15.186Z,89.47
2022-08-20T03:22:41.713Z,89.00
2022-08-20T03:25:09.085Z,88.53
2022-08-20T03:27:36.493Z,88.15
2022-08-20T03:30:04.989Z,88.36
2022-08-20T03:32:31.639Z,88.12
2022-08-20T03:34:58.225Z,88.48
2022-08-20T03:37:25.413Z,88.01
2022-08-20T03:39:52.189Z,88.29
2022-08-20T03:42:18.884Z,87.74
2022-08-20T03:44:45.368Z,87.96
2022-08-20T03:47:12.064Z,87.53
2022-08-20T03:49:38.600Z,87.92
2022-08-20T03:52:05.376Z,87.89
2022-08-20T03:54:32.313Z,88.26
2022-08-20T03:57:00.272Z,88.41
2022-08-20T03:59:26.953Z,88.57
2022-08-20T04:01:53.616Z,88.73
2022-08-20T04:04:21.185Z,88.76
2022-08-20T04:06:47.799Z,88.36
2022-08-20T04:09:15.174Z,87.94
2022-08-20T04:11:42.396Z,88.11
2022-08-20T04:14:11.127Z,88.06
2022-08-20T04:16:40.357Z,87.88
2022-08-20T04:19:07.762Z,88.17
2022-08-20T04:21:35.715Z,88.49
2022-08-20T04:24:04.630Z,87.86
2022-08-20T04:26:32.053Z,87.28
2022-08-20T04:28:58.901Z,87.67
2022-08-20T04:31:25.695Z,87.55
2022-08-20T04:33:52.579Z,87.47
2022-08-20T04:36:19.381Z,87.28
2022-08-20T04:38:47.908Z,87.84
2022-08-20T04:41:23.567Z,88.39
2022-08-20T04:43:53.215Z,89.15
2022-08-20T04:46:21.046Z,89.59
2022-08-20T04:48:49.146Z,90.33
2022-08-20T04:51:17.298Z,90.80
2022-08-20T04:53:51.873Z,91.20
2022-08-20T04:56:23.776Z,92.03
2022-08-20T04:58:52.486Z,93.00
2022-08-20T05:01:19.800Z,93.75
2022-08-20T05:03:47.886Z,94.36
2022-08-20T05:06:16.224Z,94.54
2022-08-20T05:08:44.003Z,94.60
2022-08-20T05:11:34.138Z,94.99
2022-08-20T05:13:58.065Z,95.29
2022-08-20T05:16:24.928Z,95.71
2022-08-20T05:18:52.409Z,95.52
2022-08-20T05:21:20.654Z,95.69
2022-08-20T05:23:47.135Z,95.79
2022-08-20T05:26:16.135Z,95.88
2022-08-20T05:28:58.001Z,95.98
2022-08-20T05:31:32.435Z,95.44
2022-08-20T05:34:11.185Z,95.45
2022-08-20T05:36:49.049Z,95.44
2022-08-20T05:39:18.373Z,95.51
2022-08-20T05:41:44.975Z,95.28
2022-08-20T05:44:14.043Z,95.12
2022-08-20T05:46:42.774Z,94.80
2022-08-20T05:49:16.178Z,94.82
2022-08-20T05:51:43.721Z,95.12
2022-08-20T05:54:10.296Z,94.91
2022-08-20T05:56:37.280Z,94.95
2022-08-20T05:59:05.036Z,94.97
2022-08-20T06:01:34.299Z,94.54
2022-08-20T06:04:19.781Z,94.25
2022-08-20T06:06:47.284Z,94.18
2022-08-20T06:09:16.522Z,94.11
2022-08-20T06:11:54.720Z,94.17
2022-08-20T06:14:26.610Z,94.22
2022-08-20T06:16:57.569Z,93.75
2022-08-20T06:19:26.173Z,93.26
2022-08-20T06:21:52.959Z,93.08
2022-08-20T06:24:21.385Z,92.75
2022-08-20T06:26:48.167Z,92.66
2022-08-20T06:33:39.585Z,92.72
2022-08-20T06:36:07.153Z,92.55
2022-08-20T06:38:33.580Z,92.23
2022-08-20T06:41:05.936Z,92.13
2022-08-20T06:43:32.562Z,92.37
2022-08-20T06:45:59.061Z,92.08
2022-08-20T06:48:25.549Z,92.03
2022-08-20T06:50:53.268Z,92.17
2022-08-20T06:53:20.931Z,91.80
2022-08-20T06:55:49.418Z,91.70
2022-08-20T06:58:37.832Z,91.93
2022-08-20T07:01:09.520Z,92.43
2022-08-20T07:03:38.187Z,92.56
2022-08-20T07:06:05.589Z,92.42
2022-08-20T07:08:32.268Z,92.20
2022-08-20T07:10:59.629Z,91.76
2022-08-20T07:13:26.289Z,92.02
2022-08-20T07:15:54.181Z,92.00
2022-08-20T07:18:28.037Z,92.25
2022-08-20T07:20:57.378Z,92.01
2022-08-20T07:23:27.549Z,90.98
2022-08-20T07:25:55.732Z,90.54
2022-08-20T07:28:24.193Z,90.46
2022-08-20T07:31:13.844Z,90.02
2022-08-20T07:33:44.790Z,89.97
2022-08-20T07:36:12.333Z,90.10
2022-08-20T07:38:38.991Z,89.49
2022-08-20T07:41:13.473Z,89.45
2022-08-20T07:43:40.983Z,89.81
2022-08-20T07:46:09.085Z,89.18
2022-08-20T07:48:40.092Z,88.88
2022-08-20T07:51:08.501Z,88.38
2022-08-20T07:53:37.500Z,87.99
2022-08-20T07:56:06.542Z,87.62
2022-08-20T07:58:35.774Z,87.18
2022-08-20T08:01:02.508Z,87.57
2022-08-20T08:03:40.558Z,87.20
2022-08-20T08:06:19.970Z,87.13
2022-08-20T08:09:08.201Z,87.00
2022-08-20T08:11:38.228Z,86.63
2022-08-20T08:14:08.264Z,86.55
2022-08-20T08:16:36.216Z,86.20
2022-08-20T08:19:06.626Z,86.40
2022-08-20T08:21:33.384Z,86.69
2022-08-20T08:24:00.480Z,86.60
2022-08-20T08:26:29.030Z,86.61
2022-08-20T08:28:56.142Z,86.75
2022-08-20T08:31:22.770Z,86.91
2022-08-20T08:33:49.246Z,87.14
2022-08-20T08:36:16.774Z,86.45
2022-08-20T08:38:45.281Z,86.30
2022-08-20T08:41:24.596Z,85.57
2022-08-20T08:43:54.363Z,85.56
2022-08-20T08:46:27.294Z,85.64
2022-08-20T08:48:57.920Z,85.74
2022-08-20T08:51:37.318Z,85.65
2022-08-20T08:54:07.186Z,85.63
2022-08-20T08:56:34.864Z,86.20
2022-08-20T08:59:07.762Z,86.15
2022-08-20T09:01:55.695Z,86.09
2022-08-20T09:04:30.423Z,86.44
2022-08-20T09:06:58.773Z,86.21
2022-08-20T09:09:31.422Z,85.97
2022-08-20T09:12:08.527Z,86.50
2022-08-20T09:14:36.277Z,86.26
2022-08-20T09:17:03.099Z,86.49
2022-08-20T09:19:29.774Z,85.82
2022-08-20T09:21:56.346Z,86.04
2022-08-20T09:24:22.966Z,85.57
2022-08-20T09:26:49.555Z,85.60
2022-08-20T09:29:16.205Z,85.72
2022-08-20T09:31:43.553Z,85.85
2022-08-20T09:34:11.756Z,85.69
2022-08-20T09:36:38.365Z,86.15
2022-08-20T09:39:05.003Z,85.84
2022-08-20T09:41:33.865Z,85.14
2022-08-20T09:44:01.449Z,84.88
2022-08-20T09:46:27.989Z,84.73
2022-08-20T09:48:55.246Z,84.25
2022-08-20T09:51:22.240Z,83.87
2022-08-20T09:53:49.231Z,84.04
2022-08-20T09:56:16.903Z,84.06
2022-08-20T09:58:48.524Z,84.30
2022-08-20T10:01:17.041Z,83.94
2022-08-20T10:03:44.962Z,83.85
2022-08-20T10:06:14.724Z,83.11
2022-08-20T10:08:41.323Z,82.37
2022-08-20T10:11:07.828Z,81.76
2022-08-20T10:13:34.337Z,81.13
2022-08-20T10:16:00.875Z,80.50
2022-08-20T10:18:27.582Z,80.28
2022-08-20T10:20:54.174Z,80.31
2022-08-20T10:23:20.720Z,80.45
2022-08-20T10:25:47.211Z,79.75
2022-08-20T10:28:13.817Z,78.98
2022-08-20T10:30:40.469Z,78.93
2022-08-20T10:33:07.080Z,78.80
2022-08-20T10:35:33.916Z,78.82
2022-08-20T10:38:00.585Z,77.94
2022-08-20T10:40:27.204Z,76.61
2022-08-20T10:42:53.863Z,76.60
2022-08-20T10:45:20.417Z,76.94
2022-08-20T10:47:47.102Z,76.52
2022-08-20T10:50:16.747Z,76.84
2022-08-20T10:52:43.801Z,76.29
2022-08-20T10:55:10.823Z,75.24
2022-08-20T10:57:40.038Z,74.97
2022-08-20T11:00:10.222Z,74.96
2022-08-20T11:02:37.595Z,75.54
2022-08-20T11:05:05.055Z,75.12
2022-08-20T11:07:56.283Z,72.21
2022-08-20T11:10:19.519Z,68.57
2022-08-20T11:12:46.664Z,69.08
2022-08-20T11:15:14.038Z,71.53
2022-08-20T11:17:42.458Z,72.39
2022-08-20T11:20:11.860Z,72.42
2022-08-20T11:22:38.429Z,72.99
2022-08-20T11:25:06.685Z,71.98
2022-08-20T11:27:36.992Z,69.40
2022-08-20T11:30:05.214Z,69.73
2022-08-20T11:32:31.744Z,71.30
2022-08-20T11:34:58.375Z,70.62
2022-08-20T11:37:25.661Z,66.94
2022-08-20T11:39:52.518Z,65.04
2022-08-20T11:42:19.144Z,63.61
2022-08-20T11:44:45.637Z,66.25
2022-08-20T11:47:21.933Z,66.41
2022-08-20T11:49:57.395Z,65.45
2022-08-20T11:52:23.990Z,64.04
2022-08-20T11:54:54.821Z,65.18
2022-08-20T11:57:23.749Z,65.28
2022-08-20T11:59:51.064Z,64.79
2022-08-20T12:02:17.559Z,65.56
2022-08-20T12:04:44.358Z,65.74
2022-08-20T12:07:17.791Z,63.98
2022-08-20T12:09:50.686Z,65.03
2022-08-20T12:12:20.556Z,66.53
2022-08-20T12:14:47.129Z,68.25
2022-08-20T12:17:23.598Z,68.21
2022-08-20T12:19:52.150Z,65.23
2022-08-20T12:22:24.564Z,63.44
2022-08-20T12:24:52.442Z,61.28
2022-08-20T12:27:20.653Z,61.04
2022-08-20T12:29:49.479Z,60.44
2022-08-20T12:32:16.141Z,59.73
2022-08-20T12:34:43.283Z,59.98
2022-08-20T12:37:17.902Z,60.08
2022-08-20T12:39:47.800Z,60.34
2022-08-20T12:42:15.457Z,60.41
2022-08-20T12:44:43.295Z,60.73
2022-08-20T12:47:14.344Z,60.47
2022-08-20T12:49:50.138Z,59.37
2022-08-20T12:52:18.908Z,59.75
2022-08-20T12:54:46.568Z,57.62
2022-08-20T12:57:26.325Z,57.79
2022-08-20T12:59:52.819Z,59.24
2022-08-20T13:02:19.428Z,61.36
2022-08-20T13:04:45.984Z,60.85
2022-08-20T13:07:13.371Z,62.16
2022-08-20T13:09:40.621Z,61.58
2022-08-20T13:12:08.189Z,60.33
2022-08-20T13:14:35.188Z,59.57
2022-08-20T13:17:02.227Z,59.31
2022-08-20T13:19:30.522Z,58.01
2022-08-20T13:21:57.313Z,56.98
2022-08-20T13:24:23.944Z,55.61
2022-08-20T13:26:50.989Z,56.97
2022-08-20T13:29:19.333Z,57.64
2022-08-20T13:31:46.080Z,58.87
2022-08-20T13:34:13.128Z,58.38
2022-08-20T13:36:40.791Z,59.59
2022-08-20T13:39:07.765Z,58.94
2022-08-20T13:41:34.683Z,60.00
2022-08-20T13:44:01.587Z,59.39
2022-08-20T13:46:28.253Z,56.32
2022-08-20T13:48:54.829Z,54.36
2022-08-20T13:51:22.839Z,52.95
2022-08-20T13:53:54.376Z,52.99
2022-08-20T13:56:20.910Z,52.14
2022-08-20T13:58:47.512Z,51.22
2022-08-20T14:01:14.119Z,51.39
2022-08-20T14:03:40.975Z,51.72
2022-08-20T14:06:09.965Z,49.16
2022-08-20T14:08:36.760Z,47.35
2022-08-20T14:11:03.507Z,48.25
2022-08-20T14:13:30.388Z,47.96
2022-08-20T14:15:57.121Z,47.90
2022-08-20T14:18:23.709Z,48.88
2022-08-20T14:20:50.312Z,50.87
2022-08-20T14:23:16.883Z,52.25
2022-08-20T14:25:48.345Z,51.70
2022-08-20T14:28:21.130Z,52.09
2022-08-20T14:30:52.851Z,50.87
2022-08-20T14:33:20.629Z,49.29
2022-08-20T14:35:47.180Z,48.86
2022-08-20T14:38:13.802Z,48.99
2022-08-20T14:40:40.508Z,49.21
2022-08-20T14:43:07.046Z,50.40
2022-08-20T14:45:33.860Z,48.48
2022-08-20T14:48:00.420Z,47.44
2022-08-20T14:50:30.571Z,47.98
2022-08-20T14:52:57.648Z,45.78
2022-08-20T14:55:27.573Z,46.87
2022-08-20T14:57:54.684Z,47.63
2022-08-20T15:00:23.201Z,47.89
2022-08-20T15:02:49.951Z,47.29
2022-08-20T15:05:16.943Z,45.65
2022-08-20T15:07:47.710Z,44.83
2022-08-20T15:10:32.762Z,44.52
2022-08-20T15:12:59.602Z,45.21
2022-08-20T15:15:26.207Z,45.77
2022-08-20T15:17:57.726Z,45.15
2022-08-20T15:20:28.543Z,45.15
2022-08-20T15:22:55.633Z,44.22
2022-08-20T15:25:24.741Z,44.22
2022-08-20T15:27:51.630Z,43.87
2022-08-20T15:30:22.231Z,42.52
2022-08-20T15:32:54.175Z,43.06
2022-08-20T15:35:25.941Z,43.44
2022-08-20T15:37:55.465Z,43.15
2022-08-20T15:40:27.827Z,42.66
2022-08-20T15:42:56.134Z,42.96
2022-08-20T15:45:22.680Z,42.40
2022-08-20T15:47:51.988Z,42.90
2022-08-20T15:50:34.697Z,42.13
2022-08-20T15:53:08.682Z,42.12
2022-08-20T15:55:40.975Z,42.50
2022-08-20T15:58:37.165Z,41.20
2022-08-20T16:01:24.527Z,41.36
2022-08-20T16:03:59.672Z,41.43
2022-08-20T16:06:30.913Z,41.97
2022-08-20T16:09:23.630Z,43.20
2022-08-20T16:12:10.584Z,43.80
2022-08-20T16:14:41.164Z,43.25
2022-08-20T16:17:11.192Z,42.40
2022-08-20T16:19:55.236Z,42.66
2022-08-20T16:22:22.871Z,42.92
2022-08-20T16:24:50.101Z,44.88
2022-08-20T16:28:00.973Z,44.96
2022-08-20T16:30:59.360Z,45.38
2022-08-20T16:33:34.858Z,45.51
2022-08-20T16:36:03.795Z,46.14
2022-08-20T16:38:59.388Z,45.85
2022-08-20T16:41:31.838Z,46.15
2022-08-20T16:44:05.049Z,46.30
2022-08-20T16:46:38.073Z,45.74
2022-08-20T16:49:11.334Z,46.76
2022-08-20T16:51:41.858Z,46.63
2022-08-20T16:54:10.763Z,45.91
2022-08-20T16:56:42.085Z,45.57
2022-08-20T16:59:12.772Z,46.08
2022-08-20T17:02:07.242Z,46.35
2022-08-20T17:05:00.093Z,46.75
2022-08-20T17:07:42.550Z,46.69
2022-08-20T17:10:31.860Z,46.34
2022-08-20T17:13:04.731Z,46.14
2022-08-20T17:15:35.293Z,46.73
2022-08-20T17:18:29.846Z,46.25
2022-08-20T17:21:02.868Z,46.07
2022-08-20T17:23:40.636Z,46.26
2022-08-20T17:26:28.160Z,45.09
2022-08-20T17:29:04.258Z,46.12
2022-08-20T17:31:39.064Z,46.03
2022-08-20T17:34:05.881Z,46.64
2022-08-20T17:36:34.332Z,45.60
2022-08-20T17:39:01.671Z,45.69
2022-08-20T17:41:34.376Z,45.77
2022-08-20T17:44:08.322Z,46.58
2022-08-20T17:46:43.430Z,47.49
2022-08-20T17:49:14.779Z,47.65
2022-08-20T17:51:51.862Z,48.06
2022-08-20T17:58:54.611Z,49.84
2022-08-20T18:01:23.123Z,50.56
2022-08-20T18:03:51.483Z,50.86
2022-08-20T18:06:39.966Z,51.08
2022-08-20T18:09:16.981Z,51.76
2022-08-20T18:12:03.749Z,52.47
2022-08-20T18:14:30.319Z,52.60
2022-08-20T18:17:02.876Z,53.12
2022-08-20T18:20:03.688Z,53.69
2022-08-20T18:22:33.920Z,54.03
2022-08-20T18:25:09.694Z,54.63
2022-08-20T18:27:44.863Z,54.69
2022-08-20T18:30:18.810Z,54.82
2022-08-20T18:32:47.718Z,55.14
2022-08-20T18:35:32.811Z,55.56
2022-08-20T18:38:22.356Z,56.31
2022-08-20T18:40:54.929Z,56.35
2022-08-20T18:43:30.619Z,57.00
2022-08-20T18:46:12.841Z,57.30
2022-08-20T18:48:50.813Z,57.20
2022-08-20T18:51:21.356Z,57.68
2022-08-20T18:53:51.897Z,58.22
2022-08-20T18:56:35.297Z,58.47
2022-08-20T18:59:21.170Z,58.63
2022-08-20T19:01:49.196Z,59.26
2022-08-20T19:04:23.904Z,60.95
2022-08-20T19:07:11.437Z,61.85
2022-08-20T19:09:37.933Z,62.08
2022-08-20T19:12:20.777Z,62.08
2022-08-20T19:15:07.884Z,62.91
2022-08-20T19:17:44.767Z,63.57
2022-08-20T19:20:19.768Z,63.64
2022-08-20T19:22:49.017Z,63.87
2022-08-20T19:25:29.750Z,64.24
2022-08-20T19:28:03.366Z,64.33
2022-08-20T19:30:34.426Z,64.74
2022-08-20T19:33:01.454Z,65.62
2022-08-20T19:35:28.181Z,66.19
2022-08-20T19:37:54.753Z,65.91
2022-08-20T19:40:31.081Z,66.02
2022-08-20T19:43:04.375Z,66.16
2022-08-20T19:45:38.720Z,66.85
2022-08-20T19:48:27.606Z,66.56
2022-08-20T19:50:54.843Z,67.03
2022-08-20T19:53:30.481Z,67.67
2022-08-20T19:56:06.499Z,67.63
2022-08-20T19:58:34.369Z,67.68
2022-08-20T20:01:03.219Z,67.69
2022-08-20T20:03:33.672Z,67.98
2022-08-20T20:06:00.214Z,68.24
2022-08-20T20:08:39.558Z,68.48
2022-08-20T20:11:06.450Z,68.81
2022-08-20T20:13:33.287Z,69.02
2022-08-20T20:16:04.875Z,68.80
2022-08-20T20:18:36.960Z,69.22
2022-08-20T20:21:14.101Z,69.75
2022-08-20T20:23:46.456Z,70.30
2022-08-20T20:26:17.143Z,70.12
2022-08-20T20:28:53.307Z,70.05
2022-08-20T20:31:24.716Z,70.11
2022-08-20T20:33:55.390Z,70.84
2022-08-20T20:36:40.435Z,71.62
2022-08-20T20:39:29.625Z,72.08
2022-08-20T20:42:00.041Z,71.96
2022-08-20T20:44:37.415Z,72.00
2022-08-20T20:47:08.194Z,72.00
2022-08-20T20:49:52.256Z,72.40
2022-08-20T20:52:28.769Z,72.13
2022-08-20T20:55:12.068Z,72.14
2022-08-20T20:57:39.153Z,72.80
2022-08-20T21:00:13.446Z,73.37
2022-08-20T21:02:40.932Z,73.19
2022-08-20T21:05:08.153Z,73.45
2022-08-20T21:07:34.679Z,74.10
2022-08-20T21:10:01.970Z,74.41
2022-08-20T21:12:29.519Z,74.88
2022-08-20T21:14:56.166Z,75.25
2022-08-20T21:17:23.107Z,75.37
2022-08-20T21:19:51.751Z,76.57
2022-08-20T21:22:19.850Z,76.17
2022-08-20T21:24:48.554Z,76.09
2022-08-20T21:27:15.885Z,76.46
2022-08-20T21:29:42.438Z,76.64
2022-08-20T21:32:09.348Z,77.47
2022-08-20T21:34:39.424Z,76.48
2022-08-20T21:37:06.013Z,76.16
2022-08-20T21:39:32.637Z,76.35
2022-08-20T21:42:02.359Z,76.58
2022-08-20T21:44:31.694Z,76.85
2022-08-20T21:47:00.371Z,76.98
2022-08-20T21:49:28.560Z,77.36
2022-08-20T21:51:56.604Z,76.69
2022-08-20T21:54:24.116Z,76.93
2022-08-20T21:56:54.186Z,77.01
2022-08-20T21:59:22.581Z,77.45
2022-08-20T22:01:49.302Z,77.78
2022-08-20T22:04:15.832Z,78.34
2022-08-20T22:06:42.462Z,78.47
2022-08-20T22:09:09.035Z,78.49
2022-08-20T22:11:35.890Z,78.83
2022-08-20T22:14:02.913Z,78.86
2022-08-20T22:16:29.481Z,78.66
2022-08-20T22:18:56.047Z,79.33
2022-08-20T22:21:25.657Z,79.87
2022-08-20T22:23:53.870Z,79.85
2022-08-20T22:26:21.140Z,80.28
2022-08-20T22:28:51.040Z,80.36
2022-08-20T22:31:21.250Z,80.34
2022-08-20T22:33:47.775Z,80.56
2022-08-20T22:36:14.301Z,80.45
2022-08-20T22:38:40.949Z,80.54
2022-08-20T22:41:09.684Z,80.91
2022-08-20T22:43:36.544Z,80.47
2022-08-20T22:46:15.113Z,80.53
2022-08-20T22:48:42.822Z,80.52
2022-08-20T22:51:09.758Z,81.30
2022-08-20T22:53:36.608Z,81.44
2022-08-20T22:56:04.128Z,82.07
2022-08-20T22:58:31.514Z,82.50
2022-08-20T23:01:01.052Z,82.64
2022-08-20T23:03:39.281Z,82.42
2022-08-20T23:06:08.962Z,82.08
2022-08-20T23:08:35.604Z,81.96
2022-08-20T23:11:02.096Z,81.69
2022-08-20T23:13:28.768Z,82.75
2022-08-20T23:15:55.662Z,82.58
2022-08-20T23:18:22.304Z,83.18
2022-08-20T23:20:52.683Z,82.94
2022-08-20T23:23:19.872Z,82.90
2022-08-20T23:25:46.716Z,82.33
2022-08-20T23:28:13.197Z,81.70
2022-08-20T23:30:39.778Z,82.76
2022-08-20T23:33:06.280Z,82.90
2022-08-20T23:35:33.170Z,83.17
2022-08-20T23:38:00.122Z,83.33
2022-08-20T23:40:28.427Z,83.02
2022-08-20T23:42:55.233Z,83.78
2022-08-20T23:45:21.886Z,84.95
2022-08-20T23:47:48.829Z,85.28
2022-08-20T23:50:21.879Z,84.71
2022-08-20T23:52:51.727Z,85.00
2022-08-20T23:55:18.695Z,83.71
